Dundee, Oregon
Current Conditions -  °F | °C
As of 5:32 AM on Sunday 23 Nov 2014 (Local Time) from KMMV Reporting Station
Haze Haze  
Wind Chill:   Ceiling: 5500
Heat Index:   Visibility: 0.75mi
Dew Point:   Wind: 5mph
Humidity: 97%   Direction: 10°N
Pressure: 30.3"   Gusts: NA
Location:  45.28°N, 123.01°W
Report Text: KMMV 231332Z AUTO 01004KT 3/4SM BR BKN055 04/04 A3030 RMK AO2 T00440039 $
Loading
Personal Weather Stations






























Interactive Weather Map New forecast layout! Learn more

10-Day Weather Forecast

Advertisements
Track Severe Weather on mobile